createdAt,value
2023-01-19T12:55:59.622Z,10.20
2023-01-19T12:58:26.770Z,6.40
2023-01-19T13:01:13.307Z,7.20
2023-01-19T13:03:44.669Z,7.60
2023-01-19T13:06:11.629Z,7.30
2023-01-19T13:08:57.727Z,9.10
2023-01-19T13:11:27.109Z,7.20
2023-01-19T13:13:58.164Z,8.70
2023-01-19T13:16:28.218Z,7.90
2023-01-19T13:33:55.441Z,5.70
2023-01-19T13:36:28.189Z,8.80
2023-01-19T13:38:55.057Z,7.70
2023-01-19T13:41:24.196Z,7.70
2023-01-19T13:44:01.521Z,9.00
2023-01-19T13:46:28.722Z,8.20
2023-01-19T13:48:57.228Z,9.10
2023-01-19T13:51:24.103Z,8.00
2023-01-19T13:53:57.803Z,7.50
2023-01-19T13:56:29.043Z,6.90
2023-01-19T13:59:05.934Z,8.60
2023-01-19T14:01:33.264Z,8.60
2023-01-19T14:04:00.529Z,9.00
2023-01-19T14:06:33.951Z,6.80
2023-01-19T14:09:17.798Z,8.10
2023-01-19T14:11:45.547Z,5.40
2023-01-19T14:14:27.964Z,9.70
2023-01-19T14:16:54.874Z,8.90
2023-01-19T14:19:21.931Z,8.10
2023-01-19T14:22:02.288Z,7.40
2023-01-19T14:24:32.201Z,9.90
2023-01-19T14:27:19.441Z,8.80
2023-01-19T14:29:47.643Z,10.40
2023-01-19T14:32:15.558Z,9.70
2023-01-19T14:34:48.596Z,10.70
2023-01-19T14:37:24.767Z,10.80
2023-01-19T14:39:54.786Z,8.40
2023-01-19T14:42:23.773Z,9.90
2023-01-19T14:44:56.620Z,8.90
2023-01-19T14:47:31.441Z,8.50
2023-01-19T14:50:01.220Z,9.50
2023-01-19T14:52:49.067Z,9.90
2023-01-19T14:55:20.938Z,9.10
2023-01-19T14:57:47.974Z,8.40
2023-01-19T15:00:17.495Z,8.40
2023-01-19T15:02:45.071Z,10.20
2023-01-19T15:05:13.558Z,8.30
2023-01-19T15:07:40.891Z,6.90
2023-01-19T15:10:21.669Z,7.80
2023-01-19T15:12:48.912Z,9.10
2023-01-19T15:15:16.642Z,9.70
2023-01-19T15:17:43.541Z,5.80
2023-01-19T15:20:14.099Z,6.50
2023-01-19T15:22:41.095Z,6.90
2023-01-19T15:25:08.432Z,9.20
2023-01-19T15:27:35.595Z,9.90
2023-01-19T15:30:03.039Z,6.30
2023-01-19T15:32:30.277Z,8.00
2023-01-19T15:34:57.259Z,9.80
2023-01-19T15:37:25.222Z,6.80
2023-01-19T15:39:52.163Z,9.00
2023-01-19T15:42:19.131Z,8.90
2023-01-19T15:44:46.086Z,7.50
2023-01-19T15:47:13.198Z,10.20
2023-01-19T15:49:40.145Z,8.40
2023-01-19T15:52:07.032Z,9.10
2023-01-19T15:54:34.184Z,8.50
2023-01-19T15:57:01.689Z,7.20
2023-01-19T15:59:28.649Z,8.60
2023-01-19T16:01:55.679Z,7.60
2023-01-19T16:04:22.943Z,6.40
2023-01-19T16:06:50.627Z,8.20
2023-01-19T16:09:20.282Z,10.90
2023-01-19T16:11:47.292Z,8.70
2023-01-19T16:14:16.044Z,8.20
2023-01-19T16:16:46.369Z,9.60
2023-01-19T16:19:14.364Z,12.10
2023-01-19T16:21:41.234Z,10.70
2023-01-19T16:24:08.192Z,10.90
2023-01-19T16:26:35.957Z,9.80
2023-01-19T16:29:07.991Z,10.00
2023-01-19T16:31:35.072Z,7.80
2023-01-19T16:34:02.433Z,10.90
2023-01-19T16:36:30.159Z,11.90
2023-01-19T16:39:15.463Z,11.50
2023-01-19T16:41:42.747Z,13.20
2023-01-19T16:44:10.373Z,14.00
2023-01-19T16:46:37.965Z,10.90
2023-01-19T16:49:05.786Z,11.40
2023-01-19T16:51:33.249Z,12.90
2023-01-19T16:54:00.133Z,13.00
2023-01-19T16:56:27.170Z,12.40
2023-01-19T16:58:54.601Z,13.80
2023-01-19T17:01:21.616Z,14.40
2023-01-19T17:03:48.799Z,15.10
2023-01-19T17:06:18.238Z,11.20
2023-01-19T17:08:45.216Z,12.20
2023-01-19T17:11:13.090Z,11.70
2023-01-19T17:13:40.032Z,14.30
2023-01-19T17:16:07.165Z,11.40
2023-01-19T17:18:34.514Z,12.30
2023-01-19T17:21:02.460Z,12.00
2023-01-19T17:23:29.723Z,13.50
2023-01-19T17:25:57.071Z,12.50
2023-01-19T17:28:23.996Z,12.90
2023-01-19T17:30:52.815Z,14.00
2023-01-19T17:33:20.408Z,13.80
2023-01-19T17:35:47.326Z,9.60
2023-01-19T17:38:14.412Z,12.70
2023-01-19T17:40:41.455Z,11.70
2023-01-19T17:43:08.387Z,12.10
2023-01-19T17:45:36.187Z,14.70
2023-01-19T17:48:03.837Z,13.70
2023-01-19T17:50:31.991Z,8.60
2023-01-19T17:52:58.928Z,13.70
2023-01-19T17:55:26.568Z,11.50
2023-01-19T17:57:53.483Z,9.00
2023-01-19T18:00:20.539Z,11.70
2023-01-19T18:02:52.180Z,10.40
2023-01-19T18:05:19.924Z,9.30
2023-01-19T18:07:48.086Z,10.60
2023-01-19T18:10:16.094Z,8.80
2023-01-19T18:12:44.792Z,11.00
2023-01-19T18:15:12.086Z,13.60
2023-01-19T18:17:39.188Z,13.40
2023-01-19T18:20:06.380Z,10.60
2023-01-19T18:22:33.638Z,10.00
2023-01-19T18:25:01.824Z,12.20
2023-01-19T18:27:30.419Z,11.20
2023-01-19T18:29:57.851Z,11.20
2023-01-19T18:32:27.113Z,11.60
2023-01-19T18:34:54.399Z,10.00
2023-01-19T18:37:21.798Z,7.80
2023-01-19T18:39:49.655Z,7.60
2023-01-19T18:42:16.824Z,11.40
2023-01-19T18:44:43.767Z,13.10
2023-01-19T18:47:11.848Z,9.60
2023-01-19T18:49:38.999Z,10.60
2023-01-19T18:52:06.240Z,13.40
2023-01-19T18:54:33.430Z,9.00
2023-01-19T18:57:00.353Z,12.50
2023-01-19T18:59:27.306Z,10.00
2023-01-19T19:01:54.400Z,10.40
2023-01-19T19:04:21.469Z,11.70
2023-01-19T19:06:48.395Z,11.70
2023-01-19T19:09:15.427Z,9.70
2023-01-19T19:11:42.410Z,12.50
2023-01-19T19:14:09.428Z,10.60
2023-01-19T19:16:39.271Z,7.60
2023-01-19T19:19:07.343Z,13.20
2023-01-19T19:21:34.277Z,10.30
2023-01-19T19:24:01.781Z,11.90
2023-01-19T19:26:28.747Z,11.80
2023-01-19T19:28:55.685Z,13.10
2023-01-19T19:31:22.952Z,11.00
2023-01-19T19:33:51.545Z,10.80
2023-01-19T19:36:18.852Z,14.30
2023-01-19T19:38:48.220Z,12.60
2023-01-19T19:41:22.009Z,11.10
2023-01-19T19:43:49.105Z,8.70
2023-01-19T19:46:16.602Z,12.10
2023-01-19T19:48:43.620Z,8.30
2023-01-19T19:51:19.183Z,10.60
2023-01-19T19:53:47.888Z,11.30
2023-01-19T19:56:16.457Z,10.20
2023-01-19T19:58:43.539Z,9.80
2023-01-19T20:01:11.482Z,10.00
2023-01-19T20:03:38.727Z,10.30
2023-01-19T20:06:06.468Z,11.70
2023-01-19T20:08:33.587Z,9.80
2023-01-19T20:11:07.423Z,9.20
2023-01-19T20:13:35.184Z,10.00
2023-01-19T20:16:03.526Z,11.60
2023-01-19T20:18:30.740Z,13.30
2023-01-19T20:20:58.255Z,8.80
2023-01-19T20:23:25.211Z,8.70
2023-01-19T20:25:52.406Z,10.40
2023-01-19T20:28:19.393Z,12.20
2023-01-19T20:30:46.621Z,13.00
2023-01-19T20:33:15.000Z,9.90
2023-01-19T20:35:41.917Z,10.00
2023-01-19T20:38:08.885Z,13.60
2023-01-19T20:40:35.858Z,13.10
2023-01-19T20:43:03.047Z,9.80
2023-01-19T20:45:30.662Z,11.60
2023-01-19T20:47:57.648Z,12.80
2023-01-19T20:50:24.592Z,8.30
2023-01-19T20:52:51.487Z,12.30
2023-01-19T20:55:19.224Z,13.30
2023-01-19T20:57:46.110Z,8.70
2023-01-19T21:00:14.045Z,12.60
2023-01-19T21:02:41.054Z,10.60
2023-01-19T21:05:08.300Z,13.80
2023-01-19T21:07:35.264Z,15.50
2023-01-19T21:10:02.280Z,13.80
2023-01-19T21:12:29.201Z,14.10
2023-01-19T21:14:56.101Z,15.00
2023-01-19T21:17:23.009Z,10.90
2023-01-19T21:19:50.012Z,13.90
2023-01-19T21:22:16.975Z,15.20
2023-01-19T21:24:44.596Z,12.30
2023-01-19T21:27:11.775Z,11.20
2023-01-19T21:29:38.827Z,12.40
2023-01-19T21:32:05.910Z,10.40
2023-01-19T21:34:32.834Z,13.70
2023-01-19T21:36:59.769Z,14.90
2023-01-19T21:39:26.681Z,15.60
2023-01-19T21:41:53.540Z,10.20
2023-01-19T21:44:20.541Z,15.60
2023-01-19T21:46:47.483Z,13.80
2023-01-19T21:49:18.623Z,11.30
2023-01-19T21:51:47.912Z,12.40
2023-01-19T21:54:14.999Z,12.30
2023-01-19T21:56:43.988Z,14.20
2023-01-19T21:59:14.958Z,15.30
2023-01-19T22:01:42.165Z,13.20
2023-01-19T22:04:09.253Z,11.40
2023-01-19T22:06:36.277Z,11.40
2023-01-19T22:09:03.349Z,10.20
2023-01-19T22:11:30.324Z,14.50
2023-01-19T22:13:59.786Z,13.80
2023-01-19T22:16:27.020Z,11.80
2023-01-19T22:19:03.047Z,13.80
2023-01-19T22:21:31.122Z,10.70
2023-01-19T22:23:59.239Z,12.60
2023-01-19T22:26:26.741Z,12.10
2023-01-19T22:28:57.297Z,11.30
2023-01-19T22:31:24.344Z,11.40
2023-01-19T22:33:51.633Z,13.50
2023-01-19T22:36:19.958Z,13.10
2023-01-19T22:38:53.994Z,15.80
2023-01-19T22:41:22.445Z,11.60
2023-01-19T22:43:49.814Z,13.50
2023-01-19T22:46:17.377Z,10.80
2023-01-19T22:48:44.404Z,15.40
2023-01-19T22:51:11.315Z,16.60
2023-01-19T22:53:38.289Z,11.80
2023-01-19T22:56:12.221Z,11.70
2023-01-19T22:58:40.685Z,14.90
2023-01-19T23:01:08.455Z,13.00
2023-01-19T23:03:35.944Z,16.50
2023-01-19T23:06:06.963Z,13.20
2023-01-19T23:08:34.680Z,15.00
2023-01-19T23:11:24.954Z,15.40
2023-01-19T23:13:51.951Z,12.90
2023-01-19T23:16:19.063Z,10.50
2023-01-19T23:18:46.149Z,12.10
2023-01-19T23:21:14.102Z,10.90
2023-01-19T23:23:40.994Z,12.90
2023-01-19T23:26:11.885Z,10.70
2023-01-19T23:28:40.056Z,13.30
2023-01-19T23:31:14.418Z,14.50
2023-01-19T23:33:41.790Z,12.40
2023-01-19T23:36:08.861Z,12.80
2023-01-19T23:38:35.871Z,15.40
2023-01-19T23:41:02.830Z,14.00
2023-01-19T23:43:30.352Z,15.50
2023-01-19T23:45:57.264Z,16.20
2023-01-19T23:48:24.218Z,14.50
2023-01-19T23:50:51.655Z,13.80
2023-01-19T23:53:18.610Z,12.90
2023-01-19T23:55:45.559Z,13.80
2023-01-19T23:58:12.531Z,12.70
